Arundel, ME

1:04 PM EST on November 28, 2014 (GMT -0500)
Seaspray | Change Station
CLOSE
Current Station
Personal Weather Station
Location: Biddeford, ME
Elevation: 20 ft
Nearby Weather Stations

Elev 20 ft 43.41 °N, 70.38 °W | Updated 3 minutes ago

Overcast
Overcast
29.2 °F
Feels Like 25 °F
N
4.0
Wind Variable Wind from West
Gusts 6.0 mph

Today
High -- | Low -- °F
--% Chance of Precip.
Yesterday
High -- | Low -- °F
Precip. -- in
6:51 AM 4:08 PM
Waxing Crescent, 42% visible
Pressure 30.03 in
Visibility 10.0 miles
Clouds Few 2500 ft
Overcast 3900 ft
Windchill 25 °F
Dew Point 24 °F
Humidity 82%
Rainfall 0.00 in
Snow Depth Not available.
UV 1 out of 12
Pollen .10 out of 12
Air Quality Not available.
Flu Activity Not available.
METAR KSFM 281755Z AUTO 28005KT 10SM FEW025 OVC039 M01/M06 A3003 RMK AO1 10128 21050 57010

More Conditions Fewer Conditions

Pressure 30.03 in
Visibility 10.0 miles
Clouds Few 2500 ft
Overcast 3900 ft
Windchill 25 °F
Dew Point 24 °F
Humidity 82%
Rainfall 0.00 in
Snow Depth Not available.
UV 1 out of 12
Pollen .10 out of 12
Air Quality Not available.
Flu Activity Not available.
METAR KSFM 281755Z AUTO 28005KT 10SM FEW025 OVC039 M01/M06 A3003 RMK AO1 10128 21050 57010

More Conditions Fewer Conditions

10-Day Weather Forecast

Almanac

Astronomy

Nov. 28, 2014 Rise Set
Actual Time
Civil Twilight
Nautical Twilight
Astronomical Twilight
Moon
Length of Visible Light
Length of Day
Tomorrow will be .
, % of the Moon is Illuminated

Today's Extremes

State Highs State Lows

Community

WunderPhotos

Upload Photos

1,774,246 photos uploaded!

WunderBlogs® & News

Nearby

Air Quality

  Air Quality AQ Index Pollutant
Not available.

Snow Depth

Station Depth Elevation

Earthquake Activity

City Distance Mag. Time & Date
Minimum magnitude displayed is 2.5.

Coastal Water Temperatures

Place Temperature

Nearby Weather Stations